sensor_id;sensor_type;location;lat;lon;timestamp;pressure;altitude;pressure_sealevel;temperature;humidity
72370;BME280;60343;-32.030;115.880;2023-11-21T00:01:48;101992.69;;;25.96;40.13
72370;BME280;60343;-32.030;115.880;2023-11-21T00:04:23;101983.09;;;26.10;39.65
72370;BME280;60343;-32.030;115.880;2023-11-21T00:06:58;101975.94;;;26.09;39.12
72370;BME280;60343;-32.030;115.880;2023-11-21T00:09:33;101960.72;;;26.18;39.48
72370;BME280;60343;-32.030;115.880;2023-11-21T00:12:09;101966.72;;;26.15;39.15
72370;BME280;60343;-32.030;115.880;2023-11-21T00:14:44;101968.91;;;26.46;38.72
72370;BME280;60343;-32.030;115.880;2023-11-21T00:17:27;101971.91;;;26.62;38.09
72370;BME280;60343;-32.030;115.880;2023-11-21T00:20:02;101978.53;;;27.16;38.60
72370;BME280;60343;-32.030;115.880;2023-11-21T00:22:40;101979.94;;;27.84;36.99
72370;BME280;60343;-32.030;115.880;2023-11-21T00:25:16;101981.41;;;28.18;35.26
72370;BME280;60343;-32.030;115.880;2023-11-21T00:27:52;101984.09;;;28.40;35.75
72370;BME280;60343;-32.030;115.880;2023-11-21T00:30:29;101974.59;;;28.63;34.15
72370;BME280;60343;-32.030;115.880;2023-11-21T00:33:12;101979.06;;;28.32;34.83
72370;BME280;60343;-32.030;115.880;2023-11-21T00:35:48;101967.88;;;28.11;35.35
72370;BME280;60343;-32.030;115.880;2023-11-21T00:38:23;101963.91;;;28.07;35.23
72370;BME280;60343;-32.030;115.880;2023-11-21T00:40:58;101960.91;;;27.82;35.26
72370;BME280;60343;-32.030;115.880;2023-11-21T00:43:33;101957.03;;;28.05;36.04
72370;BME280;60343;-32.030;115.880;2023-11-21T00:46:08;101959.69;;;28.22;35.26
72370;BME280;60343;-32.030;115.880;2023-11-21T00:48:49;101964.03;;;28.81;34.46
72370;BME280;60343;-32.030;115.880;2023-11-21T00:51:25;101957.59;;;29.13;33.76
72370;BME280;60343;-32.030;115.880;2023-11-21T00:54:00;101959.94;;;29.31;33.39
72370;BME280;60343;-32.030;115.880;2023-11-21T00:56:35;101944.81;;;29.49;33.58
72370;BME280;60343;-32.030;115.880;2023-11-21T00:59:11;101958.00;;;29.31;33.06
72370;BME280;60343;-32.030;115.880;2023-11-21T01:01:47;101956.97;;;29.00;33.34
72370;BME280;60343;-32.030;115.880;2023-11-21T01:04:29;101948.75;;;29.06;33.94
72370;BME280;60343;-32.030;115.880;2023-11-21T01:07:04;101946.06;;;29.26;33.71
72370;BME280;60343;-32.030;115.880;2023-11-21T01:09:39;101947.25;;;29.40;32.90
72370;BME280;60343;-32.030;115.880;2023-11-21T01:12:15;101947.81;;;29.37;33.08
72370;BME280;60343;-32.030;115.880;2023-11-21T01:14:52;101942.88;;;29.49;33.20
72370;BME280;60343;-32.030;115.880;2023-11-21T01:17:28;101937.44;;;29.84;32.56
72370;BME280;60343;-32.030;115.880;2023-11-21T01:20:10;101927.84;;;30.07;32.09
72370;BME280;60343;-32.030;115.880;2023-11-21T01:22:45;101922.59;;;30.01;32.11
72370;BME280;60343;-32.030;115.880;2023-11-21T01:25:21;101929.22;;;30.20;32.08
72370;BME280;60343;-32.030;115.880;2023-11-21T01:27:58;101919.25;;;30.59;31.87
72370;BME280;60343;-32.030;115.880;2023-11-21T01:30:33;101918.16;;;30.40;31.59
72370;BME280;60343;-32.030;115.880;2023-11-21T01:33:08;101904.59;;;30.69;31.07
72370;BME280;60343;-32.030;115.880;2023-11-21T01:35:49;101905.19;;;30.56;30.95
72370;BME280;60343;-32.030;115.880;2023-11-21T01:38:24;101902.16;;;30.57;31.15
72370;BME280;60343;-32.030;115.880;2023-11-21T01:40:59;101907.09;;;30.65;31.31
72370;BME280;60343;-32.030;115.880;2023-11-21T01:43:35;101905.97;;;30.77;31.09
72370;BME280;60343;-32.030;115.880;2023-11-21T01:46:11;101904.22;;;31.11;31.33
72370;BME280;60343;-32.030;115.880;2023-11-21T01:48:47;101903.59;;;31.24;30.29
72370;BME280;60343;-32.030;115.880;2023-11-21T01:51:29;101897.47;;;31.32;30.23
72370;BME280;60343;-32.030;115.880;2023-11-21T01:54:05;101897.56;;;31.12;29.84
72370;BME280;60343;-32.030;115.880;2023-11-21T01:56:40;101902.56;;;31.10;30.13
72370;BME280;60343;-32.030;115.880;2023-11-21T01:59:20;101894.19;;;31.25;30.16
72370;BME280;60343;-32.030;115.880;2023-11-21T02:01:55;101890.34;;;31.21;29.56
72370;BME280;60343;-32.030;115.880;2023-11-21T02:04:32;101892.06;;;31.07;30.01
72370;BME280;60343;-32.030;115.880;2023-11-21T02:07:13;101890.69;;;30.89;30.13
72370;BME280;60343;-32.030;115.880;2023-11-21T02:09:51;101889.97;;;30.38;30.83
72370;BME280;60343;-32.030;115.880;2023-11-21T02:12:26;101888.34;;;30.27;30.68
72370;BME280;60343;-32.030;115.880;2023-11-21T02:15:01;101880.03;;;30.32;30.71
72370;BME280;60343;-32.030;115.880;2023-11-21T02:17:43;101877.81;;;30.24;31.15
72370;BME280;60343;-32.030;115.880;2023-11-21T02:20:19;101875.63;;;30.16;30.83
72370;BME280;60343;-32.030;115.880;2023-11-21T02:23:02;101868.97;;;30.42;31.43
72370;BME280;60343;-32.030;115.880;2023-11-21T02:25:37;101872.78;;;30.77;30.97
72370;BME280;60343;-32.030;115.880;2023-11-21T02:28:13;101872.03;;;31.25;30.45
72370;BME280;60343;-32.030;115.880;2023-11-21T02:30:53;101860.84;;;31.45;29.19
72370;BME280;60343;-32.030;115.880;2023-11-21T02:33:30;101866.31;;;31.56;29.02
72370;BME280;60343;-32.030;115.880;2023-11-21T02:36:09;101860.22;;;31.64;28.74
72370;BME280;60343;-32.030;115.880;2023-11-21T02:38:50;101867.09;;;31.71;28.90
72370;BME280;60343;-32.030;115.880;2023-11-21T02:41:25;101863.00;;;31.64;29.52
72370;BME280;60343;-32.030;115.880;2023-11-21T02:44:00;101850.72;;;31.75;29.08
72370;BME280;60343;-32.030;115.880;2023-11-21T02:46:36;101861.91;;;31.60;28.88
72370;BME280;60343;-32.030;115.880;2023-11-21T02:49:11;101859.13;;;31.54;28.80
72370;BME280;60343;-32.030;115.880;2023-11-21T02:51:46;101852.81;;;31.44;29.02
72370;BME280;60343;-32.030;115.880;2023-11-21T02:54:28;101843.09;;;31.57;29.15
72370;BME280;60343;-32.030;115.880;2023-11-21T02:57:04;101828.28;;;31.76;28.62
72370;BME280;60343;-32.030;115.880;2023-11-21T02:59:41;101834.50;;;31.92;28.13
72370;BME280;60343;-32.030;115.880;2023-11-21T03:02:16;101827.53;;;31.94;28.32
72370;BME280;60343;-32.030;115.880;2023-11-21T03:04:53;101811.47;;;31.97;28.55
72370;BME280;60343;-32.030;115.880;2023-11-21T03:07:28;101817.97;;;32.16;27.93
72370;BME280;60343;-32.030;115.880;2023-11-21T03:10:09;101810.44;;;32.21;28.30
72370;BME280;60343;-32.030;115.880;2023-11-21T03:12:45;101814.03;;;32.22;27.46
72370;BME280;60343;-32.030;115.880;2023-11-21T03:15:20;101806.94;;;32.11;27.61
72370;BME280;60343;-32.030;115.880;2023-11-21T03:17:55;101794.97;;;32.10;28.09
72370;BME280;60343;-32.030;115.880;2023-11-21T03:20:32;101797.56;;;32.30;27.92
72370;BME280;60343;-32.030;115.880;2023-11-21T03:23:07;101789.03;;;32.51;27.73
72370;BME280;60343;-32.030;115.880;2023-11-21T03:25:49;101780.25;;;32.67;26.87
72370;BME280;60343;-32.030;115.880;2023-11-21T03:28:24;101779.38;;;32.72;26.78
72370;BME280;60343;-32.030;115.880;2023-11-21T03:30:59;101773.81;;;32.72;27.08
72370;BME280;60343;-32.030;115.880;2023-11-21T03:33:34;101767.59;;;32.80;26.65
72370;BME280;60343;-32.030;115.880;2023-11-21T03:36:10;101760.66;;;32.83;27.02
72370;BME280;60343;-32.030;115.880;2023-11-21T03:38:45;101773.25;;;33.12;26.57
72370;BME280;60343;-32.030;115.880;2023-11-21T03:41:26;101764.03;;;33.36;26.19
72370;BME280;60343;-32.030;115.880;2023-11-21T03:44:02;101761.91;;;33.65;26.96
72370;BME280;60343;-32.030;115.880;2023-11-21T03:46:38;101746.97;;;33.93;26.63
72370;BME280;60343;-32.030;115.880;2023-11-21T03:49:14;101735.56;;;34.09;25.53
72370;BME280;60343;-32.030;115.880;2023-11-21T03:51:50;101742.34;;;34.02;25.73
72370;BME280;60343;-32.030;115.880;2023-11-21T03:54:25;101730.69;;;34.00;25.13
72370;BME280;60343;-32.030;115.880;2023-11-21T03:57:06;101733.25;;;33.97;25.43
72370;BME280;60343;-32.030;115.880;2023-11-21T03:59:42;101723.78;;;33.84;25.46
72370;BME280;60343;-32.030;115.880;2023-11-21T04:02:17;101712.53;;;33.76;25.60
72370;BME280;60343;-32.030;115.880;2023-11-21T04:04:53;101722.44;;;33.95;25.30
72370;BME280;60343;-32.030;115.880;2023-11-21T04:07:31;101721.19;;;34.20;24.86
72370;BME280;60343;-32.030;115.880;2023-11-21T04:10:07;101715.19;;;34.27;24.71
72370;BME280;60343;-32.030;115.880;2023-11-21T04:12:49;101702.63;;;34.43;24.22
72370;BME280;60343;-32.030;115.880;2023-11-21T04:15:24;101700.31;;;34.59;24.36
72370;BME280;60343;-32.030;115.880;2023-11-21T04:18:01;101697.19;;;34.87;24.19
72370;BME280;60343;-32.030;115.880;2023-11-21T04:20:36;101686.56;;;35.12;23.82
72370;BME280;60343;-32.030;115.880;2023-11-21T04:23:11;101692.31;;;35.29;23.45
72370;BME280;60343;-32.030;115.880;2023-11-21T04:25:46;101693.88;;;35.44;23.24
72370;BME280;60343;-32.030;115.880;2023-11-21T04:28:29;101677.59;;;35.37;23.13
72370;BME280;60343;-32.030;115.880;2023-11-21T04:31:05;101677.41;;;35.56;23.44
72370;BME280;60343;-32.030;115.880;2023-11-21T04:33:40;101681.81;;;35.57;22.42
72370;BME280;60343;-32.030;115.880;2023-11-21T04:36:15;101680.69;;;35.89;21.98
72370;BME280;60343;-32.030;115.880;2023-11-21T04:38:50;101671.69;;;35.92;22.22
72370;BME280;60343;-32.030;115.880;2023-11-21T04:41:26;101657.56;;;36.28;22.27
72370;BME280;60343;-32.030;115.880;2023-11-21T04:44:07;101657.75;;;36.40;22.51
72370;BME280;60343;-32.030;115.880;2023-11-21T04:46:44;101658.41;;;36.54;21.64
72370;BME280;60343;-32.030;115.880;2023-11-21T04:49:20;101654.31;;;36.51;21.22
72370;BME280;60343;-32.030;115.880;2023-11-21T04:51:55;101645.91;;;36.43;22.71
72370;BME280;60343;-32.030;115.880;2023-11-21T04:54:31;101661.00;;;36.16;22.20
72370;BME280;60343;-32.030;115.880;2023-11-21T04:57:07;101648.03;;;36.29;21.94
72370;BME280;60343;-32.030;115.880;2023-11-21T04:59:48;101637.78;;;36.81;22.28
72370;BME280;60343;-32.030;115.880;2023-11-21T05:02:24;101644.28;;;37.36;21.88
72370;BME280;60343;-32.030;115.880;2023-11-21T05:04:59;101630.22;;;37.71;20.38
72370;BME280;60343;-32.030;115.880;2023-11-21T05:07:35;101625.25;;;37.76;20.02
72370;BME280;60343;-32.030;115.880;2023-11-21T05:10:10;101614.34;;;37.46;20.67
72370;BME280;60343;-32.030;115.880;2023-11-21T05:12:46;101615.81;;;37.43;20.81
72370;BME280;60343;-32.030;115.880;2023-11-21T05:15:27;101628.75;;;37.10;20.32
72370;BME280;60343;-32.030;115.880;2023-11-21T05:18:02;101615.16;;;37.46;20.56
72370;BME280;60343;-32.030;115.880;2023-11-21T05:20:37;101616.13;;;37.59;19.93
72370;BME280;60343;-32.030;115.880;2023-11-21T05:23:13;101604.28;;;37.91;19.96
72370;BME280;60343;-32.030;115.880;2023-11-21T05:25:48;101594.75;;;37.92;19.55
72370;BME280;60343;-32.030;115.880;2023-11-21T05:28:24;101590.03;;;38.13;19.47
72370;BME280;60343;-32.030;115.880;2023-11-21T05:31:05;101583.22;;;38.44;20.03
72370;BME280;60343;-32.030;115.880;2023-11-21T05:33:41;101582.19;;;38.07;19.14
72370;BME280;60343;-32.030;115.880;2023-11-21T05:36:16;101566.50;;;38.14;19.10
72370;BME280;60343;-32.030;115.880;2023-11-21T05:38:51;101569.91;;;37.91;18.80
72370;BME280;60343;-32.030;115.880;2023-11-21T05:41:26;101566.09;;;37.95;18.39
72370;BME280;60343;-32.030;115.880;2023-11-21T05:44:02;101568.47;;;38.14;18.42
72370;BME280;60343;-32.030;115.880;2023-11-21T05:46:43;101561.72;;;38.36;19.00
72370;BME280;60343;-32.030;115.880;2023-11-21T05:49:18;101555.81;;;38.58;18.82
72370;BME280;60343;-32.030;115.880;2023-11-21T05:51:54;101550.00;;;38.63;18.75
72370;BME280;60343;-32.030;115.880;2023-11-21T05:54:30;101544.47;;;38.87;18.53
72370;BME280;60343;-32.030;115.880;2023-11-21T05:57:05;101539.25;;;39.43;19.19
72370;BME280;60343;-32.030;115.880;2023-11-21T05:59:40;101529.44;;;39.61;17.65
72370;BME280;60343;-32.030;115.880;2023-11-21T06:02:22;101528.56;;;39.12;18.28
72370;BME280;60343;-32.030;115.880;2023-11-21T06:04:57;101521.91;;;39.17;17.80
72370;BME280;60343;-32.030;115.880;2023-11-21T06:07:33;101523.53;;;39.30;18.32
72370;BME280;60343;-32.030;115.880;2023-11-21T06:10:09;101519.97;;;39.41;17.30
72370;BME280;60343;-32.030;115.880;2023-11-21T06:12:45;101507.00;;;39.37;16.88
72370;BME280;60343;-32.030;115.880;2023-11-21T06:15:21;101499.06;;;39.51;17.13
72370;BME280;60343;-32.030;115.880;2023-11-21T06:18:02;101501.34;;;39.25;17.82
72370;BME280;60343;-32.030;115.880;2023-11-21T06:20:38;101494.75;;;39.54;17.86
72370;BME280;60343;-32.030;115.880;2023-11-21T06:23:13;101498.59;;;39.61;17.32
72370;BME280;60343;-32.030;115.880;2023-11-21T06:25:48;101487.94;;;39.55;17.20
72370;BME280;60343;-32.030;115.880;2023-11-21T06:28:25;101488.22;;;39.37;16.96
72370;BME280;60343;-32.030;115.880;2023-11-21T06:31:00;101480.84;;;39.45;16.65
72370;BME280;60343;-32.030;115.880;2023-11-21T06:33:42;101469.25;;;39.83;16.77
72370;BME280;60343;-32.030;115.880;2023-11-21T06:36:17;101467.75;;;40.13;17.20
72370;BME280;60343;-32.030;115.880;2023-11-21T06:38:52;101474.16;;;39.86;16.19
72370;BME280;60343;-32.030;115.880;2023-11-21T06:41:27;101461.69;;;40.11;17.17
72370;BME280;60343;-32.030;115.880;2023-11-21T06:44:03;101455.38;;;40.42;16.67
72370;BME280;60343;-32.030;115.880;2023-11-21T06:46:38;101455.56;;;40.49;16.68
72370;BME280;60343;-32.030;115.880;2023-11-21T06:49:19;101458.44;;;40.37;16.55
72370;BME280;60343;-32.030;115.880;2023-11-21T06:51:54;101445.91;;;40.19;16.28
72370;BME280;60343;-32.030;115.880;2023-11-21T06:54:32;101451.06;;;40.05;17.18
72370;BME280;60343;-32.030;115.880;2023-11-21T06:57:07;101448.78;;;39.70;17.42
72370;BME280;60343;-32.030;115.880;2023-11-21T06:59:43;101428.19;;;39.38;16.35
72370;BME280;60343;-32.030;115.880;2023-11-21T07:02:18;101438.22;;;39.03;17.54
72370;BME280;60343;-32.030;115.880;2023-11-21T07:04:59;101428.97;;;38.90;17.20
72370;BME280;60343;-32.030;115.880;2023-11-21T07:07:36;101426.84;;;38.87;18.04
72370;BME280;60343;-32.030;115.880;2023-11-21T07:10:11;101427.72;;;38.55;17.66
72370;BME280;60343;-32.030;115.880;2023-11-21T07:12:46;101418.94;;;38.44;18.02
72370;BME280;60343;-32.030;115.880;2023-11-21T07:15:21;101423.84;;;38.14;17.88
72370;BME280;60343;-32.030;115.880;2023-11-21T07:17:56;101422.66;;;37.95;18.48
72370;BME280;60343;-32.030;115.880;2023-11-21T07:20:37;101414.81;;;37.88;17.79
72370;BME280;60343;-32.030;115.880;2023-11-21T07:23:13;101411.25;;;37.67;18.14
72370;BME280;60343;-32.030;115.880;2023-11-21T07:25:49;101416.75;;;37.55;18.08
72370;BME280;60343;-32.030;115.880;2023-11-21T07:28:25;101406.06;;;37.57;18.24
72370;BME280;60343;-32.030;115.880;2023-11-21T07:31:01;101409.25;;;37.67;18.40
72370;BME280;60343;-32.030;115.880;2023-11-21T07:33:36;101399.97;;;37.55;18.24
72370;BME280;60343;-32.030;115.880;2023-11-21T07:36:18;101403.38;;;37.60;17.81
72370;BME280;60343;-32.030;115.880;2023-11-21T07:38:54;101403.25;;;37.57;17.76
72370;BME280;60343;-32.030;115.880;2023-11-21T07:41:30;101391.59;;;37.55;17.87
72370;BME280;60343;-32.030;115.880;2023-11-21T07:44:06;101391.75;;;37.50;17.84
72370;BME280;60343;-32.030;115.880;2023-11-21T07:46:41;101395.53;;;37.54;18.21
72370;BME280;60343;-32.030;115.880;2023-11-21T07:49:17;101391.47;;;37.43;17.95
72370;BME280;60343;-32.030;115.880;2023-11-21T07:51:58;101384.94;;;37.38;18.40
72370;BME280;60343;-32.030;115.880;2023-11-21T07:54:33;101376.00;;;37.45;18.17
72370;BME280;60343;-32.030;115.880;2023-11-21T07:57:09;101375.47;;;37.52;17.49
72370;BME280;60343;-32.030;115.880;2023-11-21T07:59:44;101373.19;;;37.54;17.64
72370;BME280;60343;-32.030;115.880;2023-11-21T08:02:21;101378.00;;;37.45;18.14
72370;BME280;60343;-32.030;115.880;2023-11-21T08:04:56;101367.22;;;37.34;17.57
72370;BME280;60343;-32.030;115.880;2023-11-21T08:07:37;101374.50;;;37.48;18.24
72370;BME280;60343;-32.030;115.880;2023-11-21T08:10:13;101378.13;;;37.48;17.64
72370;BME280;60343;-32.030;115.880;2023-11-21T08:12:49;101368.41;;;37.54;17.98
72370;BME280;60343;-32.030;115.880;2023-11-21T08:15:24;101364.97;;;37.57;17.19
72370;BME280;60343;-32.030;115.880;2023-11-21T08:17:59;101353.78;;;37.57;17.54
72370;BME280;60343;-32.030;115.880;2023-11-21T08:20:35;101363.66;;;37.55;17.39
72370;BME280;60343;-32.030;115.880;2023-11-21T08:23:17;101362.34;;;37.52;17.23
72370;BME280;60343;-32.030;115.880;2023-11-21T08:25:53;101360.91;;;37.46;17.31
72370;BME280;60343;-32.030;115.880;2023-11-21T08:28:28;101352.34;;;37.43;17.43
72370;BME280;60343;-32.030;115.880;2023-11-21T08:31:03;101356.34;;;37.42;17.55
72370;BME280;60343;-32.030;115.880;2023-11-21T08:33:39;101363.69;;;37.46;17.62
72370;BME280;60343;-32.030;115.880;2023-11-21T08:36:14;101361.50;;;37.52;17.33
72370;BME280;60343;-32.030;115.880;2023-11-21T08:38:56;101360.53;;;37.56;17.01
72370;BME280;60343;-32.030;115.880;2023-11-21T08:41:33;101352.47;;;37.55;17.63
72370;BME280;60343;-32.030;115.880;2023-11-21T08:44:09;101361.66;;;37.55;17.32
72370;BME280;60343;-32.030;115.880;2023-11-21T08:46:45;101357.41;;;37.49;17.43
72370;BME280;60343;-32.030;115.880;2023-11-21T08:49:23;101352.47;;;37.55;17.25
72370;BME280;60343;-32.030;115.880;2023-11-21T08:51:58;101353.63;;;37.54;17.23
72370;BME280;60343;-32.030;115.880;2023-11-21T08:54:40;101350.66;;;37.50;17.26
72370;BME280;60343;-32.030;115.880;2023-11-21T08:57:15;101339.66;;;37.54;17.23
72370;BME280;60343;-32.030;115.880;2023-11-21T08:59:50;101351.94;;;37.53;16.60
72370;BME280;60343;-32.030;115.880;2023-11-21T09:02:27;101343.44;;;37.49;16.66
72370;BME280;60343;-32.030;115.880;2023-11-21T09:05:03;101356.47;;;37.45;17.03
72370;BME280;60343;-32.030;115.880;2023-11-21T09:07:38;101348.41;;;37.44;16.39
72370;BME280;60343;-32.030;115.880;2023-11-21T09:10:20;101343.91;;;37.30;17.45
72370;BME280;60343;-32.030;115.880;2023-11-21T09:12:56;101339.28;;;37.34;16.71
72370;BME280;60343;-32.030;115.880;2023-11-21T09:15:31;101355.34;;;37.37;16.85
72370;BME280;60343;-32.030;115.880;2023-11-21T09:18:06;101339.28;;;37.34;16.68
72370;BME280;60343;-32.030;115.880;2023-11-21T09:20:41;101342.28;;;37.29;16.97
72370;BME280;60343;-32.030;115.880;2023-11-21T09:23:17;101338.34;;;37.30;16.31
72370;BME280;60343;-32.030;115.880;2023-11-21T09:25:58;101334.22;;;37.28;16.50
72370;BME280;60343;-32.030;115.880;2023-11-21T09:28:33;101346.22;;;37.28;16.93
72370;BME280;60343;-32.030;115.880;2023-11-21T09:31:10;101327.22;;;37.22;17.05
72370;BME280;60343;-32.030;115.880;2023-11-21T09:33:45;101338.19;;;37.27;16.59
72370;BME280;60343;-32.030;115.880;2023-11-21T09:36:20;101328.19;;;37.26;16.60
72370;BME280;60343;-32.030;115.880;2023-11-21T09:38:57;101340.16;;;37.26;16.83
72370;BME280;60343;-32.030;115.880;2023-11-21T09:41:44;101338.88;;;37.24;17.02
72370;BME280;60343;-32.030;115.880;2023-11-21T09:44:22;101326.22;;;37.26;16.40
72370;BME280;60343;-32.030;115.880;2023-11-21T09:47:01;101331.63;;;37.23;15.85
72370;BME280;60343;-32.030;115.880;2023-11-21T09:49:39;101328.09;;;37.14;16.05
72370;BME280;60343;-32.030;115.880;2023-11-21T09:52:19;101332.84;;;37.13;16.36
72370;BME280;60343;-32.030;115.880;2023-11-21T09:55:00;101334.03;;;37.04;16.96
72370;BME280;60343;-32.030;115.880;2023-11-21T09:57:46;101329.66;;;36.94;17.22
72370;BME280;60343;-32.030;115.880;2023-11-21T10:00:23;101337.56;;;36.92;17.09
72370;BME280;60343;-32.030;115.880;2023-11-21T10:03:00;101337.75;;;36.87;16.67
72370;BME280;60343;-32.030;115.880;2023-11-21T10:05:36;101341.06;;;36.80;17.01
72370;BME280;60343;-32.030;115.880;2023-11-21T10:08:12;101333.13;;;36.62;17.35
72370;BME280;60343;-32.030;115.880;2023-11-21T10:10:51;101339.38;;;36.50;17.56
72370;BME280;60343;-32.030;115.880;2023-11-21T10:13:34;101352.03;;;36.39;17.40
72370;BME280;60343;-32.030;115.880;2023-11-21T10:16:11;101347.50;;;36.26;17.75
72370;BME280;60343;-32.030;115.880;2023-11-21T10:18:50;101347.03;;;36.15;17.73
72370;BME280;60343;-32.030;115.880;2023-11-21T10:21:27;101337.50;;;35.99;17.62
72370;BME280;60343;-32.030;115.880;2023-11-21T10:24:02;101331.59;;;35.92;17.88
72370;BME280;60343;-32.030;115.880;2023-11-21T10:26:38;101343.09;;;35.82;17.73
72370;BME280;60343;-32.030;115.880;2023-11-21T10:29:22;101331.50;;;35.71;18.10
72370;BME280;60343;-32.030;115.880;2023-11-21T10:31:57;101340.78;;;35.58;18.02
72370;BME280;60343;-32.030;115.880;2023-11-21T10:34:34;101339.66;;;35.50;18.16
72370;BME280;60343;-32.030;115.880;2023-11-21T10:37:13;101336.03;;;35.50;17.90
72370;BME280;60343;-32.030;115.880;2023-11-21T10:39:49;101331.94;;;35.47;18.37
72370;BME280;60343;-32.030;115.880;2023-11-21T10:42:24;101332.91;;;35.34;18.45
72370;BME280;60343;-32.030;115.880;2023-11-21T10:45:05;101337.50;;;35.30;18.35
72370;BME280;60343;-32.030;115.880;2023-11-21T10:47:43;101336.19;;;35.19;18.46
72370;BME280;60343;-32.030;115.880;2023-11-21T10:50:20;101330.72;;;35.05;18.74
72370;BME280;60343;-32.030;115.880;2023-11-21T10:52:55;101334.94;;;34.94;18.73
72370;BME280;60343;-32.030;115.880;2023-11-21T10:55:31;101333.75;;;34.78;18.99
72370;BME280;60343;-32.030;115.880;2023-11-21T10:58:06;101335.28;;;34.62;19.15
72370;BME280;60343;-32.030;115.880;2023-11-21T11:00:48;101337.34;;;34.47;19.37
72370;BME280;60343;-32.030;115.880;2023-11-21T11:03:23;101342.59;;;34.49;19.19
72370;BME280;60343;-32.030;115.880;2023-11-21T11:05:58;101338.97;;;34.40;19.46
72370;BME280;60343;-32.030;115.880;2023-11-21T11:08:36;101333.34;;;34.31;19.39
72370;BME280;60343;-32.030;115.880;2023-11-21T11:11:13;101327.97;;;34.35;19.29
72370;BME280;60343;-32.030;115.880;2023-11-21T11:13:48;101343.91;;;34.21;19.62
72370;BME280;60343;-32.030;115.880;2023-11-21T11:16:29;101328.09;;;34.08;19.70
72370;BME280;60343;-32.030;115.880;2023-11-21T11:19:05;101335.94;;;34.05;19.41
72370;BME280;60343;-32.030;115.880;2023-11-21T11:21:47;101341.75;;;33.95;19.74
72370;BME280;60343;-32.030;115.880;2023-11-21T11:27:54;101339.09;;;33.68;20.04
72370;BME280;60343;-32.030;115.880;2023-11-21T11:30:45;101345.69;;;33.58;20.13
72370;BME280;60343;-32.030;115.880;2023-11-21T11:33:38;101344.66;;;33.68;20.05
72370;BME280;60343;-32.030;115.880;2023-11-21T11:36:20;101337.06;;;33.60;20.11
72370;BME280;60343;-32.030;115.880;2023-11-21T11:38:57;101342.13;;;33.44;20.51
72370;BME280;60343;-32.030;115.880;2023-11-21T11:41:33;101343.88;;;33.40;20.54
72370;BME280;60343;-32.030;115.880;2023-11-21T11:47:22;101372.78;;;33.26;20.86
72370;BME280;60343;-32.030;115.880;2023-11-21T11:50:10;101369.91;;;33.31;20.70
72370;BME280;60343;-32.030;115.880;2023-11-21T11:52:48;101377.31;;;33.22;21.20
72370;BME280;60343;-32.030;115.880;2023-11-21T11:55:26;101360.03;;;33.11;20.92
72370;BME280;60343;-32.030;115.880;2023-11-21T11:58:01;101374.25;;;33.23;20.83
72370;BME280;60343;-32.030;115.880;2023-11-21T12:00:37;101357.41;;;33.19;20.81
72370;BME280;60343;-32.030;115.880;2023-11-21T12:03:13;101363.84;;;33.15;20.76
72370;BME280;60343;-32.030;115.880;2023-11-21T12:05:54;101370.53;;;33.14;20.94
72370;BME280;60343;-32.030;115.880;2023-11-21T12:08:32;101365.59;;;33.11;21.06
72370;BME280;60343;-32.030;115.880;2023-11-21T12:11:07;101379.38;;;33.02;20.66
72370;BME280;60343;-32.030;115.880;2023-11-21T12:13:43;101381.81;;;32.90;21.06
72370;BME280;60343;-32.030;115.880;2023-11-21T12:16:20;101393.03;;;33.12;20.80
72370;BME280;60343;-32.030;115.880;2023-11-21T12:18:55;101382.88;;;33.08;20.72
72370;BME280;60343;-32.030;115.880;2023-11-21T12:21:37;101389.03;;;33.05;20.79
72370;BME280;60343;-32.030;115.880;2023-11-21T12:24:13;101393.16;;;33.07;20.85
72370;BME280;60343;-32.030;115.880;2023-11-21T12:26:48;101408.53;;;33.00;20.78
72370;BME280;60343;-32.030;115.880;2023-11-21T12:29:23;101379.19;;;32.99;20.93
72370;BME280;60343;-32.030;115.880;2023-11-21T12:31:58;101408.53;;;32.86;21.08
72370;BME280;60343;-32.030;115.880;2023-11-21T12:34:34;101378.97;;;32.82;20.99
72370;BME280;60343;-32.030;115.880;2023-11-21T12:37:15;101393.13;;;32.80;21.02
72370;BME280;60343;-32.030;115.880;2023-11-21T12:39:50;101409.16;;;32.83;21.20
72370;BME280;60343;-32.030;115.880;2023-11-21T12:42:26;101414.53;;;32.80;21.17
72370;BME280;60343;-32.030;115.880;2023-11-21T12:45:20;101410.78;;;32.70;21.31
72370;BME280;60343;-32.030;115.880;2023-11-21T12:47:57;101400.75;;;32.56;21.40
72370;BME280;60343;-32.030;115.880;2023-11-21T12:50:36;101410.13;;;32.60;21.27
72370;BME280;60343;-32.030;115.880;2023-11-21T12:53:21;101424.06;;;32.55;21.43
72370;BME280;60343;-32.030;115.880;2023-11-21T12:56:06;101431.06;;;32.52;21.32
72370;BME280;60343;-32.030;115.880;2023-11-21T12:58:46;101421.06;;;32.38;21.67
72370;BME280;60343;-32.030;115.880;2023-11-21T13:01:21;101423.22;;;32.41;21.73
72370;BME280;60343;-32.030;115.880;2023-11-21T13:04:00;101423.84;;;32.38;21.55
72370;BME280;60343;-32.030;115.880;2023-11-21T13:06:35;101427.44;;;32.38;21.57
72370;BME280;60343;-32.030;115.880;2023-11-21T13:09:16;101434.31;;;32.41;21.47
72370;BME280;60343;-32.030;115.880;2023-11-21T13:11:52;101447.41;;;32.35;21.65
72370;BME280;60343;-32.030;115.880;2023-11-21T13:14:30;101442.72;;;32.35;21.70
72370;BME280;60343;-32.030;115.880;2023-11-21T13:17:06;101437.41;;;32.20;21.90